createdAt,value
2023-02-27T00:01:00.716Z,94982.38
2023-02-27T00:03:29.185Z,94981.83
2023-02-27T00:05:57.545Z,94984.68
2023-02-27T00:08:25.933Z,94986.90
2023-02-27T00:10:54.352Z,94987.77
2023-02-27T00:13:22.586Z,94989.59
2023-02-27T00:15:51.979Z,94986.94
2023-02-27T00:18:20.074Z,94986.05
2023-02-27T00:20:48.651Z,94988.08
2023-02-27T00:23:16.857Z,94988.23
2023-02-27T00:25:45.514Z,94986.52
2023-02-27T00:28:13.557Z,94990.58
2023-02-27T00:30:42.141Z,94995.33
2023-02-27T00:33:11.146Z,94994.19
2023-02-27T00:35:42.003Z,94992.40
2023-02-27T00:38:10.990Z,94986.98
2023-02-27T00:40:39.624Z,94984.79
2023-02-27T00:43:07.982Z,94986.42
2023-02-27T00:45:36.242Z,94984.02
2023-02-27T00:48:05.052Z,94982.67
2023-02-27T00:50:33.512Z,94979.88
2023-02-27T00:53:01.855Z,94981.55
2023-02-27T00:55:30.179Z,94982.65
2023-02-27T00:57:59.153Z,94985.80
2023-02-27T01:00:28.387Z,94982.61
2023-02-27T01:02:56.847Z,94980.55
2023-02-27T01:05:25.742Z,94978.73
2023-02-27T01:07:54.852Z,94984.75
2023-02-27T01:10:23.319Z,94981.36
2023-02-27T01:12:51.357Z,94982.38
2023-02-27T01:15:19.701Z,94978.04
2023-02-27T01:17:49.604Z,94985.05
2023-02-27T01:20:18.321Z,94987.55
2023-02-27T01:22:46.976Z,94993.55
2023-02-27T01:25:15.288Z,94998.66
2023-02-27T01:27:44.348Z,94994.05
2023-02-27T01:30:14.982Z,94993.27
2023-02-27T01:32:43.380Z,94991.16
2023-02-27T01:35:13.379Z,94993.31
2023-02-27T01:37:41.853Z,94999.35
2023-02-27T01:40:11.475Z,94997.48
2023-02-27T01:42:39.660Z,95001.38
2023-02-27T01:45:07.895Z,95001.17
2023-02-27T01:47:37.458Z,94999.68
2023-02-27T01:50:07.479Z,95002.70
2023-02-27T01:52:38.044Z,94999.19
2023-02-27T01:55:08.762Z,95003.91
2023-02-27T01:57:37.201Z,95007.34
2023-02-27T02:00:06.332Z,95008.09
2023-02-27T02:02:50.448Z,95008.03
2023-02-27T02:05:20.987Z,95011.26
2023-02-27T02:07:50.370Z,95017.62
2023-02-27T02:10:20.414Z,95017.98
2023-02-27T02:12:50.176Z,95024.48
2023-02-27T02:15:20.381Z,95022.11
2023-02-27T02:18:19.439Z,95017.76
2023-02-27T02:21:25.955Z,95020.67
2023-02-27T02:24:14.669Z,95022.06
2023-02-27T02:27:04.763Z,95015.39
2023-02-27T02:29:48.294Z,95022.46
2023-02-27T02:33:04.193Z,95028.23
2023-02-27T02:35:54.596Z,95027.54
2023-02-27T02:38:36.503Z,95031.97
2023-02-27T02:41:28.629Z,95040.33
2023-02-27T02:44:13.582Z,95037.86
2023-02-27T02:46:55.574Z,95036.89
2023-02-27T02:49:47.320Z,95043.17
2023-02-27T02:52:18.466Z,95043.16
2023-02-27T02:55:16.974Z,95039.54
2023-02-27T02:57:52.196Z,95039.70
2023-02-27T03:00:31.340Z,95041.16
2023-02-27T03:03:08.524Z,95043.52
2023-02-27T03:05:43.192Z,95045.20
2023-02-27T03:08:18.173Z,95050.51
2023-02-27T03:10:56.188Z,95054.35
2023-02-27T03:13:31.253Z,95057.83
2023-02-27T03:16:05.007Z,95064.99
2023-02-27T03:18:40.586Z,95067.72
2023-02-27T03:21:14.089Z,95077.30
2023-02-27T03:23:46.174Z,95079.05
2023-02-27T03:26:20.805Z,95078.73
2023-02-27T03:29:01.215Z,95084.67
2023-02-27T03:31:47.928Z,95086.90
2023-02-27T03:34:37.667Z,95086.91
2023-02-27T03:37:30.166Z,95093.16
2023-02-27T03:40:08.484Z,95097.88
2023-02-27T03:42:47.921Z,95095.69
2023-02-27T03:46:03.536Z,95100.17
2023-02-27T03:48:32.451Z,95100.75
2023-02-27T03:51:01.192Z,95101.63
2023-02-27T03:53:55.685Z,95107.20
2023-02-27T03:56:30.029Z,95108.30
2023-02-27T03:58:59.252Z,95110.02
2023-02-27T04:01:27.846Z,95113.05
2023-02-27T04:04:11.645Z,95116.94
2023-02-27T04:07:25.196Z,95122.17
2023-02-27T04:09:59.702Z,95126.59
2023-02-27T04:12:57.162Z,95129.73
2023-02-27T04:15:31.490Z,95134.37
2023-02-27T04:18:22.716Z,95134.34
2023-02-27T04:21:22.617Z,95133.60
2023-02-27T04:24:08.613Z,95134.66
2023-02-27T04:26:48.360Z,95131.86
2023-02-27T04:29:19.410Z,95134.71
2023-02-27T04:31:59.703Z,95133.31
2023-02-27T04:34:52.222Z,95138.33
2023-02-27T04:37:34.114Z,95142.62
2023-02-27T04:40:24.921Z,95143.93
2023-02-27T04:42:56.325Z,95146.20
2023-02-27T04:45:28.689Z,95148.84
2023-02-27T04:48:04.941Z,95146.00
2023-02-27T04:50:50.354Z,95150.55
2023-02-27T04:53:24.945Z,95159.17
2023-02-27T04:56:00.506Z,95153.24
2023-02-27T04:58:34.385Z,95159.84
2023-02-27T05:01:09.011Z,95161.07
2023-02-27T05:03:47.937Z,95160.61
2023-02-27T05:06:19.449Z,95166.50
2023-02-27T05:08:50.845Z,95173.52
2023-02-27T05:11:27.210Z,95173.48
2023-02-27T05:14:18.437Z,95180.69
2023-02-27T05:17:18.034Z,95184.26
2023-02-27T05:19:47.941Z,95193.35
2023-02-27T05:22:33.817Z,95194.90
2023-02-27T05:25:14.306Z,95199.89
2023-02-27T05:27:57.023Z,95202.77
2023-02-27T05:30:34.490Z,95202.62
2023-02-27T05:33:13.957Z,95206.52
2023-02-27T05:35:52.437Z,95210.91
2023-02-27T05:38:39.398Z,95214.71
2023-02-27T05:41:12.379Z,95218.27
2023-02-27T05:43:54.950Z,95221.11
2023-02-27T05:46:28.990Z,95225.04
2023-02-27T05:49:04.161Z,95231.37
2023-02-27T05:51:36.514Z,95235.95
2023-02-27T05:54:14.065Z,95235.49
2023-02-27T05:56:46.650Z,95242.02
2023-02-27T05:59:22.667Z,95243.99
2023-02-27T06:01:50.989Z,95246.23
2023-02-27T06:04:19.454Z,95257.52
2023-02-27T06:06:48.760Z,95259.88
2023-02-27T06:09:17.110Z,95260.98
2023-02-27T06:11:45.120Z,95264.02
2023-02-27T06:14:13.558Z,95269.19
2023-02-27T06:16:41.849Z,95274.79
2023-02-27T06:19:09.977Z,95279.41
2023-02-27T06:21:38.195Z,95284.29
2023-02-27T06:24:07.076Z,95286.66
2023-02-27T06:26:35.466Z,95290.81
2023-02-27T06:29:03.950Z,95292.18
2023-02-27T06:31:32.216Z,95299.86
2023-02-27T06:34:00.331Z,95300.70
2023-02-27T06:36:30.309Z,95304.11
2023-02-27T06:38:58.898Z,95307.89
2023-02-27T06:41:27.073Z,95311.98
2023-02-27T06:43:56.701Z,95311.86
2023-02-27T06:46:25.659Z,95316.94
2023-02-27T06:48:54.368Z,95321.16
2023-02-27T06:51:22.846Z,95322.08
2023-02-27T06:53:51.383Z,95329.25
2023-02-27T06:56:19.916Z,95329.09
2023-02-27T06:58:47.983Z,95330.02
2023-02-27T07:01:16.984Z,95331.92
2023-02-27T07:03:47.923Z,95332.38
2023-02-27T07:06:16.014Z,95333.69
2023-02-27T07:09:00.857Z,95337.64
2023-02-27T07:11:32.834Z,95342.80
2023-02-27T07:14:01.080Z,95348.35
2023-02-27T07:16:29.447Z,95345.90
2023-02-27T07:18:59.009Z,95351.66
2023-02-27T07:21:27.242Z,95347.52
2023-02-27T07:23:55.724Z,95346.02
2023-02-27T07:26:25.937Z,95350.77
2023-02-27T07:28:55.051Z,95354.30
2023-02-27T07:31:23.814Z,95358.63
2023-02-27T07:33:52.551Z,95360.17
2023-02-27T07:36:20.839Z,95358.30
2023-02-27T07:38:49.213Z,95362.77
2023-02-27T07:41:30.015Z,95368.17
2023-02-27T07:44:01.130Z,95370.35
2023-02-27T07:46:29.639Z,95370.85
2023-02-27T07:48:58.001Z,95375.05
2023-02-27T07:51:26.181Z,95380.65
2023-02-27T07:53:57.629Z,95383.28
2023-02-27T07:56:27.532Z,95386.58
2023-02-27T07:58:56.947Z,95388.38
2023-02-27T08:01:25.692Z,95387.09
2023-02-27T08:03:53.830Z,95392.29
2023-02-27T08:06:22.457Z,95396.63
2023-02-27T08:08:52.071Z,95396.13
2023-02-27T08:11:20.235Z,95400.59
2023-02-27T08:14:06.430Z,95404.83
2023-02-27T08:16:35.328Z,95408.00
2023-02-27T08:19:03.782Z,95411.97
2023-02-27T08:21:32.255Z,95415.61
2023-02-27T08:24:00.623Z,95424.05
2023-02-27T08:26:29.164Z,95427.69
2023-02-27T08:28:57.899Z,95433.07
2023-02-27T08:31:26.538Z,95436.54
2023-02-27T08:34:04.425Z,95441.05
2023-02-27T08:36:37.990Z,95441.54
2023-02-27T08:39:08.251Z,95445.89
2023-02-27T08:41:36.867Z,95450.08
2023-02-27T08:44:05.416Z,95455.58
2023-02-27T08:46:33.688Z,95460.40
2023-02-27T08:49:02.343Z,95468.90
2023-02-27T08:51:30.862Z,95474.54
2023-02-27T08:53:59.262Z,95481.92
2023-02-27T08:56:28.909Z,95486.30
2023-02-27T08:58:57.925Z,95489.00
2023-02-27T09:01:28.880Z,95493.98
2023-02-27T09:03:57.785Z,95499.57
2023-02-27T09:06:26.566Z,95502.26
2023-02-27T09:08:55.667Z,95514.67
2023-02-27T09:11:24.652Z,95518.84
2023-02-27T09:13:53.080Z,95519.31
2023-02-27T09:16:22.774Z,95515.62
2023-02-27T09:18:51.646Z,95511.97
2023-02-27T09:21:20.667Z,95507.58
2023-02-27T09:23:48.897Z,95500.58
2023-02-27T09:26:17.987Z,95498.79
2023-02-27T09:28:46.246Z,95502.90
2023-02-27T09:31:14.714Z,95508.52
2023-02-27T09:33:43.557Z,95513.71
2023-02-27T09:36:11.779Z,95513.64
2023-02-27T09:38:41.410Z,95520.14
2023-02-27T09:41:39.609Z,95530.52
2023-02-27T09:44:45.322Z,95539.46
2023-02-27T09:47:40.509Z,95550.21
2023-02-27T09:50:18.206Z,95556.70
2023-02-27T09:52:47.063Z,95561.82
2023-02-27T09:55:20.393Z,95563.58
2023-02-27T09:58:08.068Z,95565.05
2023-02-27T10:00:48.556Z,95570.79
2023-02-27T10:03:43.589Z,95575.91
2023-02-27T10:06:31.607Z,95577.74
2023-02-27T10:09:30.915Z,95574.05
2023-02-27T10:12:19.160Z,95579.30
2023-02-27T10:15:20.828Z,95577.13
2023-02-27T10:17:53.559Z,95574.17
2023-02-27T10:20:30.693Z,95581.36
2023-02-27T10:23:03.544Z,95594.08
2023-02-27T10:25:38.628Z,95592.77
2023-02-27T10:28:16.844Z,95591.89
2023-02-27T10:30:48.973Z,95587.95
2023-02-27T10:33:29.358Z,95592.08
2023-02-27T10:35:58.106Z,95596.63
2023-02-27T10:38:41.447Z,95601.38
2023-02-27T10:41:12.915Z,95608.80
2023-02-27T10:43:42.030Z,95616.29
2023-02-27T10:46:13.837Z,95616.75
2023-02-27T10:48:42.475Z,95623.25
2023-02-27T10:51:30.396Z,95626.10
2023-02-27T10:54:23.896Z,95633.33
2023-02-27T10:56:58.850Z,95639.35
2023-02-27T10:59:31.931Z,95639.30
2023-02-27T11:02:03.841Z,95642.49
2023-02-27T11:04:35.036Z,95646.54
2023-02-27T11:07:09.885Z,95653.59
2023-02-27T11:09:38.753Z,95658.91
2023-02-27T11:12:26.583Z,95654.70
2023-02-27T11:15:01.056Z,95653.86
2023-02-27T11:17:34.389Z,95652.50
2023-02-27T11:20:07.900Z,95653.96
2023-02-27T11:22:35.897Z,95661.57
2023-02-27T11:25:21.464Z,95663.83
2023-02-27T11:27:52.174Z,95665.19
2023-02-27T11:30:22.831Z,95662.83
2023-02-27T11:32:52.312Z,95665.23
2023-02-27T11:35:31.070Z,95668.02
2023-02-27T11:38:20.456Z,95665.95
2023-02-27T11:40:58.643Z,95673.10
2023-02-27T11:43:29.620Z,95675.88
2023-02-27T11:46:24.092Z,95680.27
2023-02-27T11:49:02.004Z,95680.52
2023-02-27T11:51:52.908Z,95683.17
2023-02-27T11:54:48.208Z,95682.86
2023-02-27T11:57:30.429Z,95687.88
2023-02-27T12:00:07.049Z,95689.48
2023-02-27T12:02:55.411Z,95689.42
2023-02-27T12:05:36.585Z,95690.83
2023-02-27T12:08:14.673Z,95695.34
2023-02-27T12:11:01.739Z,95710.29
2023-02-27T12:13:43.822Z,95721.48
2023-02-27T12:16:22.568Z,95729.27
2023-02-27T12:18:57.751Z,95731.27
2023-02-27T12:21:32.155Z,95735.87
2023-02-27T12:24:15.583Z,95733.08
2023-02-27T12:26:46.987Z,95735.60
2023-02-27T12:29:31.212Z,95739.34
2023-02-27T12:32:21.447Z,95742.86
2023-02-27T12:35:02.289Z,95742.05
2023-02-27T12:37:33.707Z,95742.43
2023-02-27T12:40:13.165Z,95744.03
2023-02-27T12:43:00.196Z,95749.24
2023-02-27T12:45:48.594Z,95756.52
2023-02-27T12:48:34.997Z,95772.90
2023-02-27T12:51:31.894Z,95775.88
2023-02-27T12:54:09.939Z,95780.33
2023-02-27T12:56:54.746Z,95785.25
2023-02-27T12:59:46.536Z,95786.70
2023-02-27T13:02:36.948Z,95790.29
2023-02-27T13:05:22.787Z,95788.08
2023-02-27T13:08:02.519Z,95790.14
2023-02-27T13:10:41.717Z,95796.30
2023-02-27T13:13:28.328Z,95803.98
2023-02-27T13:16:12.682Z,95811.35
2023-02-27T13:18:46.183Z,95817.73
2023-02-27T13:21:38.747Z,95813.05
2023-02-27T13:24:27.713Z,95817.89
2023-02-27T13:26:58.738Z,95822.56
2023-02-27T13:29:37.769Z,95831.55
2023-02-27T13:32:43.110Z,95833.50
2023-02-27T13:35:46.091Z,95835.50
2023-02-27T13:38:41.050Z,95842.59
2023-02-27T13:41:21.650Z,95844.27
2023-02-27T13:44:00.332Z,95844.02
2023-02-27T13:46:33.712Z,95843.15
2023-02-27T13:49:05.054Z,95845.84
2023-02-27T13:51:36.810Z,95847.30
2023-02-27T13:54:14.305Z,95856.11
2023-02-27T13:56:54.872Z,95855.00
2023-02-27T13:59:36.801Z,95856.17
2023-02-27T14:02:11.258Z,95856.38
2023-02-27T14:04:47.945Z,95856.07
2023-02-27T14:07:21.521Z,95863.06
2023-02-27T14:09:53.713Z,95867.31
2023-02-27T14:12:44.562Z,95867.78
2023-02-27T14:15:22.982Z,95861.51
2023-02-27T14:18:09.234Z,95864.33
2023-02-27T14:20:41.075Z,95868.91
2023-02-27T14:23:15.277Z,95870.52
2023-02-27T14:25:46.821Z,95880.46
2023-02-27T14:28:21.320Z,95884.42
2023-02-27T14:30:57.937Z,95893.65
2023-02-27T14:33:48.538Z,95888.66
2023-02-27T14:36:22.848Z,95886.87
2023-02-27T14:38:55.012Z,95885.21
2023-02-27T14:42:00.399Z,95885.52
2023-02-27T14:44:38.652Z,95891.10
2023-02-27T14:47:07.345Z,95891.77
2023-02-27T14:49:36.586Z,95895.13
2023-02-27T14:52:20.867Z,95899.52
2023-02-27T14:54:50.510Z,95909.59
2023-02-27T14:57:26.697Z,95911.34
2023-02-27T14:59:55.585Z,95911.75
2023-02-27T15:02:30.862Z,95914.79
2023-02-27T15:05:01.778Z,95916.70
2023-02-27T15:07:33.190Z,95925.89
2023-02-27T15:10:05.014Z,95925.02
2023-02-27T15:12:39.347Z,95929.33
2023-02-27T15:15:10.682Z,95924.84
2023-02-27T15:17:40.646Z,95929.67
2023-02-27T15:20:34.113Z,95934.50
2023-02-27T15:23:21.923Z,95939.82
2023-02-27T15:25:50.329Z,95943.02
2023-02-27T15:28:28.038Z,95947.27
2023-02-27T15:30:57.237Z,95948.45
2023-02-27T15:33:32.606Z,95951.23
2023-02-27T15:36:01.846Z,95953.61
2023-02-27T15:38:38.224Z,95955.06
2023-02-27T15:41:18.396Z,95955.68
2023-02-27T15:43:46.433Z,95961.05
2023-02-27T15:46:14.878Z,95967.41
2023-02-27T15:48:43.232Z,95973.20
2023-02-27T15:51:12.360Z,95979.44
2023-02-27T15:53:49.344Z,95982.48
2023-02-27T15:56:22.771Z,95986.26
2023-02-27T15:58:54.620Z,95986.25
2023-02-27T16:01:35.518Z,95985.56
2023-02-27T16:04:06.759Z,95992.73
2023-02-27T16:06:39.191Z,95998.52
2023-02-27T16:09:30.627Z,96001.13
2023-02-27T16:12:32.683Z,95994.73
2023-02-27T16:15:34.839Z,96000.14
2023-02-27T16:18:04.100Z,96007.08
2023-02-27T16:20:50.637Z,96007.02
2023-02-27T16:23:21.921Z,96008.84
2023-02-27T16:26:09.210Z,96015.68
2023-02-27T16:28:45.302Z,96015.11
2023-02-27T16:31:26.081Z,96019.64
2023-02-27T16:33:57.440Z,96030.61
2023-02-27T16:36:31.643Z,96035.94
2023-02-27T16:38:59.988Z,96040.23
2023-02-27T16:41:28.473Z,96045.81
2023-02-27T16:43:56.960Z,96051.11
2023-02-27T16:46:25.407Z,96051.17
2023-02-27T16:48:55.870Z,96058.45
2023-02-27T16:51:27.145Z,96062.63
2023-02-27T16:53:57.038Z,96063.14
2023-02-27T16:56:37.726Z,96062.89
2023-02-27T16:59:06.914Z,96062.90
2023-02-27T17:01:35.454Z,96066.70
2023-02-27T17:04:08.668Z,96070.11
2023-02-27T17:06:41.710Z,96079.68
2023-02-27T17:09:11.681Z,96081.94
2023-02-27T17:11:40.073Z,96082.48
2023-02-27T17:14:08.663Z,96089.77
2023-02-27T17:16:36.729Z,96099.90
2023-02-27T17:19:04.963Z,96102.71
2023-02-27T17:21:34.568Z,96100.88
2023-02-27T17:24:03.306Z,96103.09
2023-02-27T17:26:31.791Z,96106.98
2023-02-27T17:29:00.181Z,96113.32
2023-02-27T17:31:28.392Z,96112.77
2023-02-27T17:33:56.656Z,96114.29
2023-02-27T17:36:24.693Z,96111.11
2023-02-27T17:39:03.062Z,96107.98
2023-02-27T17:41:32.955Z,96110.96
2023-02-27T17:44:01.918Z,96112.56
2023-02-27T17:46:31.559Z,96107.07
2023-02-27T17:49:00.885Z,96101.10
2023-02-27T17:51:31.064Z,96102.31
2023-02-27T17:54:04.992Z,96108.83
2023-02-27T17:56:36.804Z,96114.94
2023-02-27T17:59:05.540Z,96117.40
2023-02-27T18:01:34.040Z,96123.98
2023-02-27T18:04:02.307Z,96129.38
2023-02-27T18:06:31.098Z,96129.15
2023-02-27T18:08:59.864Z,96132.28
2023-02-27T18:11:28.141Z,96130.61
2023-02-27T18:13:56.724Z,96125.77
2023-02-27T18:16:25.672Z,96129.30
2023-02-27T18:18:54.198Z,96130.55
2023-02-27T18:21:25.470Z,96133.66
2023-02-27T18:23:53.746Z,96131.44
2023-02-27T18:26:30.781Z,96137.48
2023-02-27T18:29:02.553Z,96139.58
2023-02-27T18:31:43.140Z,96139.16
2023-02-27T18:34:12.237Z,96142.42
2023-02-27T18:36:41.037Z,96148.96
2023-02-27T18:39:09.425Z,96143.56
2023-02-27T18:41:38.438Z,96148.98
2023-02-27T18:44:07.934Z,96150.04
2023-02-27T18:46:40.360Z,96149.91
2023-02-27T18:49:09.002Z,96151.23
2023-02-27T18:51:37.862Z,96150.48
2023-02-27T18:54:07.172Z,96145.09
2023-02-27T18:56:37.785Z,96145.19
2023-02-27T18:59:07.318Z,96149.07
2023-02-27T19:01:38.245Z,96159.06
2023-02-27T19:04:08.238Z,96163.85
2023-02-27T19:06:42.346Z,96170.42
2023-02-27T19:09:13.038Z,96170.81
2023-02-27T19:11:42.069Z,96178.53
2023-02-27T19:14:13.378Z,96183.88
2023-02-27T19:16:42.355Z,96185.83
2023-02-27T19:19:11.970Z,96188.71
2023-02-27T19:21:40.355Z,96188.46
2023-02-27T19:24:12.112Z,96187.23
2023-02-27T19:26:40.845Z,96188.77
2023-02-27T19:29:09.801Z,96192.00
2023-02-27T19:31:38.137Z,96191.13
2023-02-27T19:34:07.022Z,96191.86
2023-02-27T19:36:35.244Z,96189.90
2023-02-27T19:39:04.406Z,96188.77
2023-02-27T19:41:33.674Z,96198.73
2023-02-27T19:44:02.435Z,96197.91
2023-02-27T19:46:33.914Z,96207.85
2023-02-27T19:49:05.067Z,96208.98
2023-02-27T19:51:33.817Z,96204.67
2023-02-27T19:54:02.130Z,96206.26
2023-02-27T19:56:31.643Z,96203.31
2023-02-27T19:59:01.228Z,96203.13
2023-02-27T20:01:38.946Z,96204.35
2023-02-27T20:04:08.075Z,96205.83
2023-02-27T20:06:42.914Z,96203.64
2023-02-27T20:09:14.676Z,96203.95
2023-02-27T20:11:44.865Z,96210.98
2023-02-27T20:14:14.538Z,96217.59
2023-02-27T20:16:43.653Z,96220.16
2023-02-27T20:19:14.719Z,96223.13
2023-02-27T20:21:43.667Z,96219.31
2023-02-27T20:24:14.515Z,96219.85
2023-02-27T20:26:47.683Z,96221.35
2023-02-27T20:29:21.479Z,96220.20
2023-02-27T20:31:51.403Z,96220.77
2023-02-27T20:34:23.164Z,96226.02
2023-02-27T20:36:52.203Z,96226.94
2023-02-27T20:39:21.601Z,96225.14
2023-02-27T20:41:49.755Z,96223.94
2023-02-27T20:44:18.145Z,96222.87
2023-02-27T20:46:49.319Z,96223.70
2023-02-27T20:49:18.461Z,96214.45
2023-02-27T20:51:46.677Z,96209.32
2023-02-27T20:54:20.635Z,96200.83
2023-02-27T20:56:54.565Z,96204.86
2023-02-27T20:59:25.394Z,96203.52
2023-02-27T21:01:54.300Z,96198.52
2023-02-27T21:04:47.456Z,96199.15
2023-02-27T21:07:21.339Z,96204.52
2023-02-27T21:09:51.009Z,96195.47
2023-02-27T21:12:19.314Z,96200.75
2023-02-27T21:14:49.513Z,96205.11
2023-02-27T21:17:17.686Z,96214.77
2023-02-27T21:19:46.295Z,96221.21
2023-02-27T21:22:14.540Z,96232.48
2023-02-27T21:24:43.034Z,96230.15
2023-02-27T21:27:11.305Z,96230.70
2023-02-27T21:29:39.577Z,96236.27
2023-02-27T21:32:08.142Z,96242.39
2023-02-27T21:34:37.155Z,96239.31
2023-02-27T21:37:07.483Z,96236.92
2023-02-27T21:39:35.608Z,96225.04
2023-02-27T21:42:03.984Z,96211.19
2023-02-27T21:44:32.335Z,96208.95
2023-02-27T21:47:09.875Z,96215.36
2023-02-27T21:49:39.428Z,96210.12
2023-02-27T21:52:07.848Z,96219.70
2023-02-27T21:54:36.304Z,96245.79
2023-02-27T21:57:05.074Z,96240.40
2023-02-27T21:59:33.353Z,96239.34
2023-02-27T22:02:01.794Z,96250.85
2023-02-27T22:04:30.406Z,96252.21
2023-02-27T22:06:58.451Z,96249.02
2023-02-27T22:09:26.878Z,96263.66
2023-02-27T22:11:55.323Z,96261.17
2023-02-27T22:14:24.783Z,96262.67
2023-02-27T22:16:53.045Z,96264.30
2023-02-27T22:19:22.761Z,96258.73
2023-02-27T22:21:51.747Z,96260.52
2023-02-27T22:24:20.663Z,96261.80
2023-02-27T22:26:50.437Z,96264.33
2023-02-27T22:29:18.843Z,96261.86
2023-02-27T22:31:47.180Z,96263.21
2023-02-27T22:34:18.719Z,96261.30
2023-02-27T22:36:52.842Z,96256.45
2023-02-27T22:39:21.703Z,96263.49
2023-02-27T22:41:50.292Z,96265.79
2023-02-27T22:44:18.543Z,96263.05
2023-02-27T22:46:49.645Z,96260.95
2023-02-27T22:49:21.467Z,96261.89
2023-02-27T22:51:52.116Z,96263.73
2023-02-27T22:54:22.704Z,96263.84
2023-02-27T22:56:55.205Z,96262.15
2023-02-27T22:59:25.831Z,96271.04
2023-02-27T23:01:54.280Z,96273.61
2023-02-27T23:04:22.611Z,96271.33
2023-02-27T23:06:52.815Z,96262.64
2023-02-27T23:09:24.497Z,96256.54
2023-02-27T23:11:53.492Z,96259.60
2023-02-27T23:14:22.888Z,96260.63
2023-02-27T23:16:51.753Z,96265.84
2023-02-27T23:19:21.927Z,96267.58
2023-02-27T23:21:50.060Z,96266.82
2023-02-27T23:24:19.764Z,96272.08
2023-02-27T23:26:50.539Z,96269.80
2023-02-27T23:29:19.721Z,96265.90
2023-02-27T23:31:48.197Z,96268.79
2023-02-27T23:34:16.632Z,96269.34
2023-02-27T23:36:44.733Z,96269.73
2023-02-27T23:39:13.261Z,96267.32
2023-02-27T23:41:41.432Z,96265.54
2023-02-27T23:44:09.455Z,96265.29
2023-02-27T23:46:37.690Z,96265.58
2023-02-27T23:49:07.080Z,96266.83
2023-02-27T23:51:35.577Z,96266.67
2023-02-27T23:54:04.044Z,96271.21
2023-02-27T23:56:32.590Z,96279.50
2023-02-27T23:59:03.911Z,96279.83
